sensor_id;sensor_type;location;lat;lon;timestamp;temperature;humidity
16964;DHT22;8598;50.508;10.436;2022-10-16T00:00:36;14.60;99.90
16964;DHT22;8598;50.508;10.436;2022-10-16T00:03:04;14.50;99.90
16964;DHT22;8598;50.508;10.436;2022-10-16T00:05:31;14.50;99.90
16964;DHT22;8598;50.508;10.436;2022-10-16T00:07:59;14.50;99.90
16964;DHT22;8598;50.508;10.436;2022-10-16T00:10:26;14.50;99.90
16964;DHT22;8598;50.508;10.436;2022-10-16T00:12:52;14.50;99.90
16964;DHT22;8598;50.508;10.436;2022-10-16T00:15:19;14.60;99.90
16964;DHT22;8598;50.508;10.436;2022-10-16T00:17:46;14.50;99.90
16964;DHT22;8598;50.508;10.436;2022-10-16T00:20:13;14.50;99.90
16964;DHT22;8598;50.508;10.436;2022-10-16T00:22:39;14.40;99.90
16964;DHT22;8598;50.508;10.436;2022-10-16T00:25:08;14.50;99.90
16964;DHT22;8598;50.508;10.436;2022-10-16T00:27:35;14.50;99.90
16964;DHT22;8598;50.508;10.436;2022-10-16T00:30:02;14.40;99.90
16964;DHT22;8598;50.508;10.436;2022-10-16T00:32:29;14.40;99.90
16964;DHT22;8598;50.508;10.436;2022-10-16T00:34:56;14.40;99.90
16964;DHT22;8598;50.508;10.436;2022-10-16T00:37:22;14.40;99.90
16964;DHT22;8598;50.508;10.436;2022-10-16T00:39:49;14.30;99.90
16964;DHT22;8598;50.508;10.436;2022-10-16T00:42:18;14.30;99.90
16964;DHT22;8598;50.508;10.436;2022-10-16T00:44:48;14.30;99.90
16964;DHT22;8598;50.508;10.436;2022-10-16T00:47:20;14.20;99.90
16964;DHT22;8598;50.508;10.436;2022-10-16T00:49:50;14.20;99.90
16964;DHT22;8598;50.508;10.436;2022-10-16T00:52:18;14.20;99.90
16964;DHT22;8598;50.508;10.436;2022-10-16T00:54:46;14.20;99.90
16964;DHT22;8598;50.508;10.436;2022-10-16T00:57:13;14.20;99.90
16964;DHT22;8598;50.508;10.436;2022-10-16T00:59:42;14.20;99.90
16964;DHT22;8598;50.508;10.436;2022-10-16T01:02:11;14.20;99.90
16964;DHT22;8598;50.508;10.436;2022-10-16T01:04:40;14.20;99.90
16964;DHT22;8598;50.508;10.436;2022-10-16T01:07:12;14.20;99.90
16964;DHT22;8598;50.508;10.436;2022-10-16T01:09:47;14.10;99.90
16964;DHT22;8598;50.508;10.436;2022-10-16T01:12:20;14.10;99.90
16964;DHT22;8598;50.508;10.436;2022-10-16T01:14:54;14.10;99.90
16964;DHT22;8598;50.508;10.436;2022-10-16T01:17:27;14.10;99.90
16964;DHT22;8598;50.508;10.436;2022-10-16T01:20:04;14.10;99.90
16964;DHT22;8598;50.508;10.436;2022-10-16T01:22:39;14.10;99.90
16964;DHT22;8598;50.508;10.436;2022-10-16T01:25:09;14.10;99.90
16964;DHT22;8598;50.508;10.436;2022-10-16T01:27:39;14.10;99.90
16964;DHT22;8598;50.508;10.436;2022-10-16T01:30:09;14.10;99.90
16964;DHT22;8598;50.508;10.436;2022-10-16T01:32:41;14.10;99.90
16964;DHT22;8598;50.508;10.436;2022-10-16T01:35:13;14.10;99.90
16964;DHT22;8598;50.508;10.436;2022-10-16T01:37:45;14.20;99.90
16964;DHT22;8598;50.508;10.436;2022-10-16T01:40:15;14.20;99.90
16964;DHT22;8598;50.508;10.436;2022-10-16T01:42:48;14.20;99.90
16964;DHT22;8598;50.508;10.436;2022-10-16T01:45:17;14.30;99.90
16964;DHT22;8598;50.508;10.436;2022-10-16T01:47:45;14.30;99.90
16964;DHT22;8598;50.508;10.436;2022-10-16T01:50:14;14.40;99.90
16964;DHT22;8598;50.508;10.436;2022-10-16T01:52:43;14.40;99.90
16964;DHT22;8598;50.508;10.436;2022-10-16T01:55:15;14.40;99.90
16964;DHT22;8598;50.508;10.436;2022-10-16T01:57:46;14.40;99.90
16964;DHT22;8598;50.508;10.436;2022-10-16T02:00:17;14.50;99.90
16964;DHT22;8598;50.508;10.436;2022-10-16T02:02:47;14.50;99.90
16964;DHT22;8598;50.508;10.436;2022-10-16T02:05:19;14.50;99.90
16964;DHT22;8598;50.508;10.436;2022-10-16T02:07:48;14.50;99.90
16964;DHT22;8598;50.508;10.436;2022-10-16T02:10:15;14.40;99.90
16964;DHT22;8598;50.508;10.436;2022-10-16T02:12:46;14.50;99.90
16964;DHT22;8598;50.508;10.436;2022-10-16T02:15:15;14.50;99.90
16964;DHT22;8598;50.508;10.436;2022-10-16T02:17:41;14.50;99.90
16964;DHT22;8598;50.508;10.436;2022-10-16T02:20:09;14.60;99.90
16964;DHT22;8598;50.508;10.436;2022-10-16T02:22:40;14.60;99.90
16964;DHT22;8598;50.508;10.436;2022-10-16T02:25:10;14.60;99.90
16964;DHT22;8598;50.508;10.436;2022-10-16T02:27:42;14.60;99.90
16964;DHT22;8598;50.508;10.436;2022-10-16T02:30:16;14.60;99.90
16964;DHT22;8598;50.508;10.436;2022-10-16T02:32:46;14.70;99.90
16964;DHT22;8598;50.508;10.436;2022-10-16T02:35:15;14.60;99.90
16964;DHT22;8598;50.508;10.436;2022-10-16T02:37:44;14.60;99.90
16964;DHT22;8598;50.508;10.436;2022-10-16T02:40:12;14.60;99.90
16964;DHT22;8598;50.508;10.436;2022-10-16T02:42:40;14.60;99.90
16964;DHT22;8598;50.508;10.436;2022-10-16T02:45:09;14.60;99.90
16964;DHT22;8598;50.508;10.436;2022-10-16T02:47:37;14.60;99.90
16964;DHT22;8598;50.508;10.436;2022-10-16T02:50:05;14.60;99.90
16964;DHT22;8598;50.508;10.436;2022-10-16T02:52:31;14.60;99.90
16964;DHT22;8598;50.508;10.436;2022-10-16T02:54:58;14.60;99.90
16964;DHT22;8598;50.508;10.436;2022-10-16T02:57:25;14.60;99.90
16964;DHT22;8598;50.508;10.436;2022-10-16T02:59:52;14.70;99.90
16964;DHT22;8598;50.508;10.436;2022-10-16T03:02:19;14.70;99.90
16964;DHT22;8598;50.508;10.436;2022-10-16T03:04:47;14.70;99.90
16964;DHT22;8598;50.508;10.436;2022-10-16T03:07:13;14.70;99.90
16964;DHT22;8598;50.508;10.436;2022-10-16T03:09:40;14.80;99.90
16964;DHT22;8598;50.508;10.436;2022-10-16T03:12:07;14.80;99.90
16964;DHT22;8598;50.508;10.436;2022-10-16T03:14:34;14.70;99.90
16964;DHT22;8598;50.508;10.436;2022-10-16T03:17:00;14.70;99.90
16964;DHT22;8598;50.508;10.436;2022-10-16T03:19:27;14.70;99.90
16964;DHT22;8598;50.508;10.436;2022-10-16T03:21:55;14.80;99.90
16964;DHT22;8598;50.508;10.436;2022-10-16T03:24:22;14.70;99.90
16964;DHT22;8598;50.508;10.436;2022-10-16T03:26:49;14.70;99.90
16964;DHT22;8598;50.508;10.436;2022-10-16T03:29:16;14.70;99.90
16964;DHT22;8598;50.508;10.436;2022-10-16T03:31:43;14.70;99.90
16964;DHT22;8598;50.508;10.436;2022-10-16T03:34:09;14.70;99.90
16964;DHT22;8598;50.508;10.436;2022-10-16T03:36:36;14.70;99.90
16964;DHT22;8598;50.508;10.436;2022-10-16T03:39:04;14.80;99.90
16964;DHT22;8598;50.508;10.436;2022-10-16T03:41:31;14.70;99.90
16964;DHT22;8598;50.508;10.436;2022-10-16T03:43:58;14.70;99.90
16964;DHT22;8598;50.508;10.436;2022-10-16T03:46:24;14.80;99.90
16964;DHT22;8598;50.508;10.436;2022-10-16T03:48:51;14.80;99.90
16964;DHT22;8598;50.508;10.436;2022-10-16T03:51:18;14.70;99.90
16964;DHT22;8598;50.508;10.436;2022-10-16T03:53:44;14.70;99.90
16964;DHT22;8598;50.508;10.436;2022-10-16T03:56:13;14.80;99.90
16964;DHT22;8598;50.508;10.436;2022-10-16T03:58:40;14.70;99.90
16964;DHT22;8598;50.508;10.436;2022-10-16T04:01:07;14.70;99.90
16964;DHT22;8598;50.508;10.436;2022-10-16T04:03:34;14.70;99.90
16964;DHT22;8598;50.508;10.436;2022-10-16T04:06:00;14.70;99.90
16964;DHT22;8598;50.508;10.436;2022-10-16T04:08:27;14.70;99.90
16964;DHT22;8598;50.508;10.436;2022-10-16T04:10:54;14.70;99.90
16964;DHT22;8598;50.508;10.436;2022-10-16T04:13:22;14.70;99.90
16964;DHT22;8598;50.508;10.436;2022-10-16T04:15:49;14.70;99.90
16964;DHT22;8598;50.508;10.436;2022-10-16T04:18:16;14.70;99.90
16964;DHT22;8598;50.508;10.436;2022-10-16T04:20:42;14.70;99.90
16964;DHT22;8598;50.508;10.436;2022-10-16T04:23:09;14.70;99.90
16964;DHT22;8598;50.508;10.436;2022-10-16T04:25:36;14.60;99.90
16964;DHT22;8598;50.508;10.436;2022-10-16T04:28:02;14.70;99.90
16964;DHT22;8598;50.508;10.436;2022-10-16T04:30:30;14.70;99.90
16964;DHT22;8598;50.508;10.436;2022-10-16T04:32:59;14.70;99.90
16964;DHT22;8598;50.508;10.436;2022-10-16T04:35:25;14.60;99.90
16964;DHT22;8598;50.508;10.436;2022-10-16T04:37:52;14.60;99.90
16964;DHT22;8598;50.508;10.436;2022-10-16T04:40:19;14.60;99.90
16964;DHT22;8598;50.508;10.436;2022-10-16T04:42:45;14.70;99.90
16964;DHT22;8598;50.508;10.436;2022-10-16T04:45:12;14.60;99.90
16964;DHT22;8598;50.508;10.436;2022-10-16T04:47:40;14.60;99.90
16964;DHT22;8598;50.508;10.436;2022-10-16T04:50:07;14.60;99.90
16964;DHT22;8598;50.508;10.436;2022-10-16T04:52:34;14.60;99.90
16964;DHT22;8598;50.508;10.436;2022-10-16T04:55:01;14.60;99.90
16964;DHT22;8598;50.508;10.436;2022-10-16T04:57:28;14.60;99.90
16964;DHT22;8598;50.508;10.436;2022-10-16T04:59:55;14.60;99.90
16964;DHT22;8598;50.508;10.436;2022-10-16T05:02:22;14.60;99.90
16964;DHT22;8598;50.508;10.436;2022-10-16T05:04:50;14.60;99.90
16964;DHT22;8598;50.508;10.436;2022-10-16T05:07:17;14.50;99.90
16964;DHT22;8598;50.508;10.436;2022-10-16T05:09:44;14.50;99.90
16964;DHT22;8598;50.508;10.436;2022-10-16T05:12:11;14.50;99.90
16964;DHT22;8598;50.508;10.436;2022-10-16T05:14:37;14.50;99.90
16964;DHT22;8598;50.508;10.436;2022-10-16T05:17:04;14.50;99.90
16964;DHT22;8598;50.508;10.436;2022-10-16T05:19:31;14.40;99.90
16964;DHT22;8598;50.508;10.436;2022-10-16T05:21:59;14.40;99.90
16964;DHT22;8598;50.508;10.436;2022-10-16T05:24:26;14.40;99.90
16964;DHT22;8598;50.508;10.436;2022-10-16T05:26:53;14.40;99.90
16964;DHT22;8598;50.508;10.436;2022-10-16T05:29:20;14.40;99.90
16964;DHT22;8598;50.508;10.436;2022-10-16T05:31:49;14.40;99.90
16964;DHT22;8598;50.508;10.436;2022-10-16T05:34:16;14.50;99.90
16964;DHT22;8598;50.508;10.436;2022-10-16T05:36:42;14.40;99.90
16964;DHT22;8598;50.508;10.436;2022-10-16T05:39:12;14.40;99.90
16964;DHT22;8598;50.508;10.436;2022-10-16T05:41:40;14.40;99.90
16964;DHT22;8598;50.508;10.436;2022-10-16T05:44:06;14.40;99.90
16964;DHT22;8598;50.508;10.436;2022-10-16T05:46:33;14.40;99.90
16964;DHT22;8598;50.508;10.436;2022-10-16T05:49:00;14.40;99.90
16964;DHT22;8598;50.508;10.436;2022-10-16T05:51:26;14.40;99.90
16964;DHT22;8598;50.508;10.436;2022-10-16T05:53:53;14.40;99.90
16964;DHT22;8598;50.508;10.436;2022-10-16T05:56:21;14.40;99.90
16964;DHT22;8598;50.508;10.436;2022-10-16T05:58:48;14.40;99.90
16964;DHT22;8598;50.508;10.436;2022-10-16T06:01:16;14.40;99.90
16964;DHT22;8598;50.508;10.436;2022-10-16T06:03:44;14.40;99.90
16964;DHT22;8598;50.508;10.436;2022-10-16T06:06:12;14.40;99.90
16964;DHT22;8598;50.508;10.436;2022-10-16T06:08:40;14.40;99.90
16964;DHT22;8598;50.508;10.436;2022-10-16T06:11:08;14.50;99.90
16964;DHT22;8598;50.508;10.436;2022-10-16T06:13:37;14.50;99.90
16964;DHT22;8598;50.508;10.436;2022-10-16T06:16:05;14.50;99.90
16964;DHT22;8598;50.508;10.436;2022-10-16T06:18:32;14.50;99.90
16964;DHT22;8598;50.508;10.436;2022-10-16T06:20:58;14.50;99.90
16964;DHT22;8598;50.508;10.436;2022-10-16T06:23:28;14.50;99.90
16964;DHT22;8598;50.508;10.436;2022-10-16T06:25:55;14.50;99.90
16964;DHT22;8598;50.508;10.436;2022-10-16T06:28:30;14.50;99.90
16964;DHT22;8598;50.508;10.436;2022-10-16T06:31:00;14.50;99.90
16964;DHT22;8598;50.508;10.436;2022-10-16T06:33:27;14.50;99.90
16964;DHT22;8598;50.508;10.436;2022-10-16T06:35:53;14.50;99.90
16964;DHT22;8598;50.508;10.436;2022-10-16T06:38:20;14.50;99.90
16964;DHT22;8598;50.508;10.436;2022-10-16T06:40:47;14.60;99.90
16964;DHT22;8598;50.508;10.436;2022-10-16T06:43:14;14.60;99.90
16964;DHT22;8598;50.508;10.436;2022-10-16T06:45:40;14.60;99.90
16964;DHT22;8598;50.508;10.436;2022-10-16T06:48:08;14.60;99.90
16964;DHT22;8598;50.508;10.436;2022-10-16T06:50:35;14.60;99.90
16964;DHT22;8598;50.508;10.436;2022-10-16T06:53:02;14.70;99.90
16964;DHT22;8598;50.508;10.436;2022-10-16T06:55:28;14.80;99.90
16964;DHT22;8598;50.508;10.436;2022-10-16T06:57:55;14.80;99.90
16964;DHT22;8598;50.508;10.436;2022-10-16T07:00:22;14.80;99.90
16964;DHT22;8598;50.508;10.436;2022-10-16T07:02:49;14.90;99.90
16964;DHT22;8598;50.508;10.436;2022-10-16T07:05:17;14.90;99.90
16964;DHT22;8598;50.508;10.436;2022-10-16T07:07:44;14.90;99.90
16964;DHT22;8598;50.508;10.436;2022-10-16T07:10:11;14.90;99.90
16964;DHT22;8598;50.508;10.436;2022-10-16T07:12:37;14.80;99.90
16964;DHT22;8598;50.508;10.436;2022-10-16T07:15:05;14.90;99.90
16964;DHT22;8598;50.508;10.436;2022-10-16T07:17:32;14.90;99.90
16964;DHT22;8598;50.508;10.436;2022-10-16T07:19:59;15.00;99.90
16964;DHT22;8598;50.508;10.436;2022-10-16T07:22:28;15.00;99.90
16964;DHT22;8598;50.508;10.436;2022-10-16T07:24:55;15.00;99.90
16964;DHT22;8598;50.508;10.436;2022-10-16T07:27:21;15.00;99.90
16964;DHT22;8598;50.508;10.436;2022-10-16T07:29:49;14.90;99.90
16964;DHT22;8598;50.508;10.436;2022-10-16T07:32:16;15.00;99.90
16964;DHT22;8598;50.508;10.436;2022-10-16T07:34:42;15.00;99.90
16964;DHT22;8598;50.508;10.436;2022-10-16T07:37:09;14.80;99.90
16964;DHT22;8598;50.508;10.436;2022-10-16T07:39:37;15.00;99.90
16964;DHT22;8598;50.508;10.436;2022-10-16T07:42:04;15.00;99.90
16964;DHT22;8598;50.508;10.436;2022-10-16T07:44:31;15.00;99.90
16964;DHT22;8598;50.508;10.436;2022-10-16T07:46:57;15.00;99.90
16964;DHT22;8598;50.508;10.436;2022-10-16T07:49:24;15.10;99.90
16964;DHT22;8598;50.508;10.436;2022-10-16T07:51:51;15.10;99.90
16964;DHT22;8598;50.508;10.436;2022-10-16T07:54:18;15.10;99.90
16964;DHT22;8598;50.508;10.436;2022-10-16T07:56:46;15.10;99.90
16964;DHT22;8598;50.508;10.436;2022-10-16T07:59:13;15.10;99.90
16964;DHT22;8598;50.508;10.436;2022-10-16T08:01:40;15.10;99.90
16964;DHT22;8598;50.508;10.436;2022-10-16T08:04:08;15.10;99.90
16964;DHT22;8598;50.508;10.436;2022-10-16T08:06:37;15.20;99.90
16964;DHT22;8598;50.508;10.436;2022-10-16T08:09:04;15.30;99.90
16964;DHT22;8598;50.508;10.436;2022-10-16T08:11:31;15.30;99.90
16964;DHT22;8598;50.508;10.436;2022-10-16T08:14:00;15.40;99.90
16964;DHT22;8598;50.508;10.436;2022-10-16T08:16:26;15.50;99.90
16964;DHT22;8598;50.508;10.436;2022-10-16T08:18:53;15.50;99.90
16964;DHT22;8598;50.508;10.436;2022-10-16T08:21:22;15.60;99.90
16964;DHT22;8598;50.508;10.436;2022-10-16T08:23:50;15.60;99.90
16964;DHT22;8598;50.508;10.436;2022-10-16T08:26:17;15.70;99.90
16964;DHT22;8598;50.508;10.436;2022-10-16T08:28:44;15.70;99.90
16964;DHT22;8598;50.508;10.436;2022-10-16T08:31:14;15.70;99.90
16964;DHT22;8598;50.508;10.436;2022-10-16T08:33:42;15.60;99.90
16964;DHT22;8598;50.508;10.436;2022-10-16T08:36:11;15.70;99.90
16964;DHT22;8598;50.508;10.436;2022-10-16T08:38:38;15.80;99.90
16964;DHT22;8598;50.508;10.436;2022-10-16T08:41:22;15.90;99.90
16964;DHT22;8598;50.508;10.436;2022-10-16T08:44:04;16.00;99.90
16964;DHT22;8598;50.508;10.436;2022-10-16T08:46:41;16.10;99.90
16964;DHT22;8598;50.508;10.436;2022-10-16T08:49:11;16.20;99.90
16964;DHT22;8598;50.508;10.436;2022-10-16T08:51:39;16.20;99.90
16964;DHT22;8598;50.508;10.436;2022-10-16T08:54:16;16.20;99.90
16964;DHT22;8598;50.508;10.436;2022-10-16T08:56:45;16.20;99.90
16964;DHT22;8598;50.508;10.436;2022-10-16T08:59:14;16.30;99.90
16964;DHT22;8598;50.508;10.436;2022-10-16T09:01:45;16.40;99.90
16964;DHT22;8598;50.508;10.436;2022-10-16T09:04:38;16.50;99.90
16964;DHT22;8598;50.508;10.436;2022-10-16T09:07:13;16.60;99.90
16964;DHT22;8598;50.508;10.436;2022-10-16T09:09:59;16.80;99.90
16964;DHT22;8598;50.508;10.436;2022-10-16T09:12:36;16.90;99.90
16964;DHT22;8598;50.508;10.436;2022-10-16T09:15:17;17.00;99.90
16964;DHT22;8598;50.508;10.436;2022-10-16T09:17:53;16.90;99.90
16964;DHT22;8598;50.508;10.436;2022-10-16T09:20:31;16.90;99.90
16964;DHT22;8598;50.508;10.436;2022-10-16T09:23:16;16.90;99.90
16964;DHT22;8598;50.508;10.436;2022-10-16T09:25:46;17.00;99.90
16964;DHT22;8598;50.508;10.436;2022-10-16T09:28:14;16.90;99.90
16964;DHT22;8598;50.508;10.436;2022-10-16T09:30:42;16.80;99.90
16964;DHT22;8598;50.508;10.436;2022-10-16T09:33:11;16.70;99.90
16964;DHT22;8598;50.508;10.436;2022-10-16T09:35:40;16.80;99.90
16964;DHT22;8598;50.508;10.436;2022-10-16T09:38:08;16.80;99.90
16964;DHT22;8598;50.508;10.436;2022-10-16T09:40:36;16.70;99.90
16964;DHT22;8598;50.508;10.436;2022-10-16T09:43:17;16.70;99.90
16964;DHT22;8598;50.508;10.436;2022-10-16T09:45:54;16.60;99.90
16964;DHT22;8598;50.508;10.436;2022-10-16T09:48:22;16.60;99.90
16964;DHT22;8598;50.508;10.436;2022-10-16T09:51:00;16.60;99.90
16964;DHT22;8598;50.508;10.436;2022-10-16T09:53:39;16.60;99.90
16964;DHT22;8598;50.508;10.436;2022-10-16T09:56:06;16.70;99.90
16964;DHT22;8598;50.508;10.436;2022-10-16T09:58:33;16.70;99.90
16964;DHT22;8598;50.508;10.436;2022-10-16T10:01:00;16.90;99.90
16964;DHT22;8598;50.508;10.436;2022-10-16T10:03:35;17.00;99.90
16964;DHT22;8598;50.508;10.436;2022-10-16T10:06:13;17.10;99.90
16964;DHT22;8598;50.508;10.436;2022-10-16T10:08:51;17.10;99.90
16964;DHT22;8598;50.508;10.436;2022-10-16T10:11:18;17.10;99.90
16964;DHT22;8598;50.508;10.436;2022-10-16T10:13:45;17.10;99.90
16964;DHT22;8598;50.508;10.436;2022-10-16T10:16:12;17.10;99.90
16964;DHT22;8598;50.508;10.436;2022-10-16T10:18:40;17.10;99.90
16964;DHT22;8598;50.508;10.436;2022-10-16T10:21:14;17.10;99.90
16964;DHT22;8598;50.508;10.436;2022-10-16T10:23:43;17.20;99.90
16964;DHT22;8598;50.508;10.436;2022-10-16T10:26:15;17.30;99.90
16964;DHT22;8598;50.508;10.436;2022-10-16T10:28:50;17.40;99.90
16964;DHT22;8598;50.508;10.436;2022-10-16T10:31:23;17.50;99.90
16964;DHT22;8598;50.508;10.436;2022-10-16T10:33:58;17.70;99.90
16964;DHT22;8598;50.508;10.436;2022-10-16T10:36:29;17.60;99.90
16964;DHT22;8598;50.508;10.436;2022-10-16T10:38:59;17.50;99.90
16964;DHT22;8598;50.508;10.436;2022-10-16T10:41:48;17.60;99.90
16964;DHT22;8598;50.508;10.436;2022-10-16T10:44:30;17.60;99.90
16964;DHT22;8598;50.508;10.436;2022-10-16T10:47:05;17.80;99.90
16964;DHT22;8598;50.508;10.436;2022-10-16T10:49:45;17.80;99.90
16964;DHT22;8598;50.508;10.436;2022-10-16T10:52:34;17.80;99.90
16964;DHT22;8598;50.508;10.436;2022-10-16T10:55:16;17.80;99.90
16964;DHT22;8598;50.508;10.436;2022-10-16T10:58:03;17.80;99.90
16964;DHT22;8598;50.508;10.436;2022-10-16T11:00:44;17.70;99.90
16964;DHT22;8598;50.508;10.436;2022-10-16T11:03:26;17.70;99.90
16964;DHT22;8598;50.508;10.436;2022-10-16T11:05:57;17.80;99.90
16964;DHT22;8598;50.508;10.436;2022-10-16T11:08:28;17.90;99.90
16964;DHT22;8598;50.508;10.436;2022-10-16T11:11:01;18.00;99.90
16964;DHT22;8598;50.508;10.436;2022-10-16T11:13:33;18.10;99.90
16964;DHT22;8598;50.508;10.436;2022-10-16T11:16:08;18.20;99.90
16964;DHT22;8598;50.508;10.436;2022-10-16T11:18:45;18.00;99.90
16964;DHT22;8598;50.508;10.436;2022-10-16T11:21:16;17.90;99.90
16964;DHT22;8598;50.508;10.436;2022-10-16T11:23:51;17.90;99.90
16964;DHT22;8598;50.508;10.436;2022-10-16T11:26:22;18.10;99.90
16964;DHT22;8598;50.508;10.436;2022-10-16T11:28:53;18.20;99.90
16964;DHT22;8598;50.508;10.436;2022-10-16T11:31:25;18.40;99.90
16964;DHT22;8598;50.508;10.436;2022-10-16T11:34:01;18.50;99.90
16964;DHT22;8598;50.508;10.436;2022-10-16T11:36:35;18.50;99.90
16964;DHT22;8598;50.508;10.436;2022-10-16T11:39:14;18.60;99.90
16964;DHT22;8598;50.508;10.436;2022-10-16T11:41:47;18.90;99.90
16964;DHT22;8598;50.508;10.436;2022-10-16T11:44:33;19.10;99.90
16964;DHT22;8598;50.508;10.436;2022-10-16T11:47:06;19.20;99.90
16964;DHT22;8598;50.508;10.436;2022-10-16T11:49:36;18.90;99.90
16964;DHT22;8598;50.508;10.436;2022-10-16T11:52:13;18.70;99.90
16964;DHT22;8598;50.508;10.436;2022-10-16T11:54:45;18.50;99.90
16964;DHT22;8598;50.508;10.436;2022-10-16T11:57:20;18.50;99.90
16964;DHT22;8598;50.508;10.436;2022-10-16T11:59:50;18.70;99.90
16964;DHT22;8598;50.508;10.436;2022-10-16T12:02:37;18.90;99.90
16964;DHT22;8598;50.508;10.436;2022-10-16T12:05:16;19.00;99.90
16964;DHT22;8598;50.508;10.436;2022-10-16T12:07:51;19.20;99.90
16964;DHT22;8598;50.508;10.436;2022-10-16T12:10:21;19.20;99.90
16964;DHT22;8598;50.508;10.436;2022-10-16T12:12:48;19.50;99.90
16964;DHT22;8598;50.508;10.436;2022-10-16T12:15:21;19.20;99.90
16964;DHT22;8598;50.508;10.436;2022-10-16T12:17:48;19.10;99.90
16964;DHT22;8598;50.508;10.436;2022-10-16T12:20:22;19.10;99.90
16964;DHT22;8598;50.508;10.436;2022-10-16T12:22:54;19.10;99.90
16964;DHT22;8598;50.508;10.436;2022-10-16T12:25:23;19.00;99.90
16964;DHT22;8598;50.508;10.436;2022-10-16T12:28:05;19.00;99.90
16964;DHT22;8598;50.508;10.436;2022-10-16T12:30:35;18.90;99.90
16964;DHT22;8598;50.508;10.436;2022-10-16T12:33:03;18.90;99.90
16964;DHT22;8598;50.508;10.436;2022-10-16T12:35:34;19.00;99.90
16964;DHT22;8598;50.508;10.436;2022-10-16T12:38:15;18.80;99.90
16964;DHT22;8598;50.508;10.436;2022-10-16T12:40:44;18.70;99.90
16964;DHT22;8598;50.508;10.436;2022-10-16T12:43:26;18.80;99.90
16964;DHT22;8598;50.508;10.436;2022-10-16T12:46:05;18.80;99.90
16964;DHT22;8598;50.508;10.436;2022-10-16T12:48:32;18.90;99.90
16964;DHT22;8598;50.508;10.436;2022-10-16T12:51:10;19.00;99.90
16964;DHT22;8598;50.508;10.436;2022-10-16T12:53:38;19.20;99.90
16964;DHT22;8598;50.508;10.436;2022-10-16T12:56:11;19.30;99.90
16964;DHT22;8598;50.508;10.436;2022-10-16T12:58:50;19.20;99.90
16964;DHT22;8598;50.508;10.436;2022-10-16T13:01:28;19.20;99.90
16964;DHT22;8598;50.508;10.436;2022-10-16T13:04:10;19.20;99.90
16964;DHT22;8598;50.508;10.436;2022-10-16T13:06:43;19.10;99.90
16964;DHT22;8598;50.508;10.436;2022-10-16T13:09:29;19.00;99.90
16964;DHT22;8598;50.508;10.436;2022-10-16T13:12:21;19.20;99.90
16964;DHT22;8598;50.508;10.436;2022-10-16T13:15:14;19.40;99.90
16964;DHT22;8598;50.508;10.436;2022-10-16T13:17:51;19.60;99.90
16964;DHT22;8598;50.508;10.436;2022-10-16T13:20:26;19.40;99.90
16964;DHT22;8598;50.508;10.436;2022-10-16T13:23:03;19.60;99.90
16964;DHT22;8598;50.508;10.436;2022-10-16T13:25:45;19.60;99.90
16964;DHT22;8598;50.508;10.436;2022-10-16T13:28:13;19.60;99.90
16964;DHT22;8598;50.508;10.436;2022-10-16T13:30:42;19.80;99.90
16964;DHT22;8598;50.508;10.436;2022-10-16T13:33:15;19.80;99.90
16964;DHT22;8598;50.508;10.436;2022-10-16T13:35:48;19.70;99.90
16964;DHT22;8598;50.508;10.436;2022-10-16T13:38:18;19.50;99.90
16964;DHT22;8598;50.508;10.436;2022-10-16T13:40:52;19.50;99.90
16964;DHT22;8598;50.508;10.436;2022-10-16T13:43:20;19.30;99.90
16964;DHT22;8598;50.508;10.436;2022-10-16T13:45:55;19.30;99.90
16964;DHT22;8598;50.508;10.436;2022-10-16T13:48:23;19.20;99.90
16964;DHT22;8598;50.508;10.436;2022-10-16T13:51:00;19.30;99.90
16964;DHT22;8598;50.508;10.436;2022-10-16T13:53:27;19.50;99.90
16964;DHT22;8598;50.508;10.436;2022-10-16T13:55:55;19.80;99.90
16964;DHT22;8598;50.508;10.436;2022-10-16T13:58:22;19.80;99.90
16964;DHT22;8598;50.508;10.436;2022-10-16T14:00:55;19.70;99.90
16964;DHT22;8598;50.508;10.436;2022-10-16T14:03:22;19.60;99.90
16964;DHT22;8598;50.508;10.436;2022-10-16T14:05:51;19.30;99.90
16964;DHT22;8598;50.508;10.436;2022-10-16T14:08:18;19.30;99.90
16964;DHT22;8598;50.508;10.436;2022-10-16T14:10:48;19.30;99.90
16964;DHT22;8598;50.508;10.436;2022-10-16T14:13:19;19.20;99.90
16964;DHT22;8598;50.508;10.436;2022-10-16T14:15:48;19.30;99.90
16964;DHT22;8598;50.508;10.436;2022-10-16T14:18:19;19.00;99.90
16964;DHT22;8598;50.508;10.436;2022-10-16T14:20:46;18.90;99.90
16964;DHT22;8598;50.508;10.436;2022-10-16T14:23:23;18.80;99.90
16964;DHT22;8598;50.508;10.436;2022-10-16T14:25:51;18.70;99.90
16964;DHT22;8598;50.508;10.436;2022-10-16T14:28:21;18.60;99.90
16964;DHT22;8598;50.508;10.436;2022-10-16T14:30:53;18.50;99.90
16964;DHT22;8598;50.508;10.436;2022-10-16T14:33:23;18.50;99.90
16964;DHT22;8598;50.508;10.436;2022-10-16T14:36:02;18.50;99.90
16964;DHT22;8598;50.508;10.436;2022-10-16T14:38:30;18.50;99.90
16964;DHT22;8598;50.508;10.436;2022-10-16T14:40:59;18.70;99.90
16964;DHT22;8598;50.508;10.436;2022-10-16T14:43:32;18.90;99.90
16964;DHT22;8598;50.508;10.436;2022-10-16T14:45:59;19.00;99.90
16964;DHT22;8598;50.508;10.436;2022-10-16T14:48:28;18.90;99.90
16964;DHT22;8598;50.508;10.436;2022-10-16T14:50:55;18.70;99.90
16964;DHT22;8598;50.508;10.436;2022-10-16T14:53:22;18.60;99.90
16964;DHT22;8598;50.508;10.436;2022-10-16T14:55:49;18.50;99.90
16964;DHT22;8598;50.508;10.436;2022-10-16T14:58:17;18.40;99.90
16964;DHT22;8598;50.508;10.436;2022-10-16T15:00:45;18.40;99.90
16964;DHT22;8598;50.508;10.436;2022-10-16T15:03:13;18.40;99.90
16964;DHT22;8598;50.508;10.436;2022-10-16T15:05:40;18.40;99.90
16964;DHT22;8598;50.508;10.436;2022-10-16T15:08:07;18.40;99.90
16964;DHT22;8598;50.508;10.436;2022-10-16T15:10:38;18.40;99.90
16964;DHT22;8598;50.508;10.436;2022-10-16T15:13:06;18.50;99.90
16964;DHT22;8598;50.508;10.436;2022-10-16T15:15:35;18.50;99.90
16964;DHT22;8598;50.508;10.436;2022-10-16T15:18:04;18.40;99.90
16964;DHT22;8598;50.508;10.436;2022-10-16T15:20:32;18.40;99.90
16964;DHT22;8598;50.508;10.436;2022-10-16T15:23:00;18.30;99.90
16964;DHT22;8598;50.508;10.436;2022-10-16T15:25:34;18.20;99.90
16964;DHT22;8598;50.508;10.436;2022-10-16T15:28:03;18.10;99.90
16964;DHT22;8598;50.508;10.436;2022-10-16T15:30:30;18.00;99.90
16964;DHT22;8598;50.508;10.436;2022-10-16T15:32:57;17.90;99.90
16964;DHT22;8598;50.508;10.436;2022-10-16T15:35:26;17.90;99.90
16964;DHT22;8598;50.508;10.436;2022-10-16T15:37:53;17.80;99.90
16964;DHT22;8598;50.508;10.436;2022-10-16T15:40:20;17.70;99.90
16964;DHT22;8598;50.508;10.436;2022-10-16T15:42:48;17.60;99.90
16964;DHT22;8598;50.508;10.436;2022-10-16T15:45:15;17.60;99.90
16964;DHT22;8598;50.508;10.436;2022-10-16T15:47:43;17.50;99.90